createdAt,value
2023-01-17T00:00:00.617Z,991.91
2023-01-17T00:16:02.774Z,991.94
2023-01-17T00:30:59.972Z,992.01
2023-01-17T00:46:01.977Z,991.98
2023-01-17T01:00:03.984Z,992.11
2023-01-17T01:16:01.347Z,992.28
2023-01-17T01:31:03.497Z,992.18
2023-01-17T01:46:00.490Z,992.32
2023-01-17T02:00:02.423Z,992.22
2023-01-17T02:16:04.555Z,992.18
2023-01-17T02:31:01.409Z,992.18
2023-01-17T02:46:03.544Z,991.98
2023-01-17T03:00:00.155Z,992.01
2023-01-17T03:16:02.409Z,992.35
2023-01-17T03:31:04.521Z,992.49
2023-01-17T03:46:02.858Z,992.55
2023-01-17T04:00:03.762Z,992.45
2023-01-17T04:16:00.607Z,992.45
2023-01-17T04:31:02.887Z,992.28
2023-01-17T04:46:04.746Z,992.49
2023-01-17T05:00:01.623Z,992.42
2023-01-17T05:16:04.071Z,992.45
2023-01-17T05:31:00.952Z,992.72
2023-01-17T05:46:03.086Z,992.96
2023-01-17T05:59:59.855Z,992.79
2023-01-17T06:16:02.529Z,993.16
2023-01-17T06:31:04.557Z,993.26
2023-01-17T06:46:01.441Z,993.33
2023-01-17T07:00:02.142Z,993.26
2023-01-17T07:16:01.386Z,993.54
2023-01-17T07:31:01.271Z,993.81
2023-01-17T07:46:02.430Z,993.6
2023-01-17T08:00:01.268Z,993.57
2023-01-17T08:16:01.283Z,993.6
2023-01-17T08:31:01.243Z,993.77
2023-01-17T08:46:01.299Z,993.33
2023-01-17T09:00:01.289Z,993.23
2023-01-17T09:16:01.257Z,993.16
2023-01-17T09:31:01.264Z,993.3
2023-01-17T09:46:01.377Z,993.64
2023-01-17T10:00:03.780Z,993.57
2023-01-17T10:16:01.312Z,993.37
2023-01-17T10:31:01.260Z,993.03
2023-01-17T10:46:01.297Z,992.59
2023-01-17T11:00:01.257Z,992.49
2023-01-17T11:16:01.285Z,992.22
2023-01-17T11:31:01.258Z,992.11
2023-01-17T11:46:01.285Z,991.98
2023-01-17T12:00:01.237Z,991.67
2023-01-17T12:16:01.445Z,991.54
2023-01-17T12:31:01.253Z,991.27
2023-01-17T12:46:01.499Z,990.83
2023-01-17T13:00:01.201Z,990.76
2023-01-17T13:16:01.290Z,990.45
2023-01-17T13:31:01.294Z,990.22
2023-01-17T13:46:01.478Z,990.05
2023-01-17T14:00:01.234Z,989.84
2023-01-17T14:16:01.230Z,989.54
2023-01-17T14:31:01.451Z,989.4
2023-01-17T14:46:01.207Z,989.47
2023-01-17T15:00:01.209Z,988.9
2023-01-17T15:16:01.203Z,988.83
2023-01-17T15:31:01.234Z,989
2023-01-17T15:46:02.799Z,989
2023-01-17T16:00:02.139Z,988.73
2023-01-17T16:16:01.211Z,988.86
2023-01-17T16:31:01.259Z,988.56
2023-01-17T16:46:01.248Z,988.46
2023-01-17T17:00:01.193Z,988.83
2023-01-17T17:16:01.393Z,988.66
2023-01-17T17:31:02.108Z,988.66
2023-01-17T17:46:01.258Z,988.76
2023-01-17T18:00:01.224Z,988.73
2023-01-17T18:16:01.272Z,988.63
2023-01-17T18:31:01.483Z,988.49
2023-01-17T18:46:01.211Z,988.32
2023-01-17T19:00:01.186Z,988.29
2023-01-17T19:16:01.237Z,988.15
2023-01-17T19:31:01.232Z,987.98
2023-01-17T19:46:01.288Z,988.19
2023-01-17T20:00:01.223Z,988.22
2023-01-17T20:16:01.290Z,987.75
2023-01-17T20:31:01.183Z,987.91
2023-01-17T20:46:01.329Z,988.15
2023-01-17T21:00:01.196Z,988.22
2023-01-17T21:16:01.278Z,988.15
2023-01-17T21:31:01.199Z,988.22
2023-01-17T21:46:01.302Z,988.15
2023-01-17T22:00:01.175Z,987.91
2023-01-17T22:16:01.267Z,987.81
2023-01-17T22:31:01.336Z,987.75
2023-01-17T22:46:02.291Z,987.78
2023-01-17T23:00:01.264Z,987.71
2023-01-17T23:16:01.309Z,988.05
2023-01-17T23:31:01.319Z,987.88
2023-01-17T23:46:01.249Z,987.68
